sensor_id;sensor_type;location;lat;lon;timestamp;P1;durP1;ratioP1;P2;durP2;ratioP2
9160;SDS011;4615;51.340;8.288;2022-10-28T00:02:18;14.70;;;4.82;;
9160;SDS011;4615;51.340;8.288;2022-10-28T00:04:45;11.95;;;4.85;;
9160;SDS011;4615;51.340;8.288;2022-10-28T00:07:11;9.82;;;4.72;;
9160;SDS011;4615;51.340;8.288;2022-10-28T00:09:38;12.80;;;4.95;;
9160;SDS011;4615;51.340;8.288;2022-10-28T00:12:06;14.43;;;6.40;;
9160;SDS011;4615;51.340;8.288;2022-10-28T00:14:32;14.57;;;7.77;;
9160;SDS011;4615;51.340;8.288;2022-10-28T00:16:58;18.17;;;7.93;;
9160;SDS011;4615;51.340;8.288;2022-10-28T00:19:25;13.13;;;6.75;;
9160;SDS011;4615;51.340;8.288;2022-10-28T00:21:51;12.77;;;6.32;;
9160;SDS011;4615;51.340;8.288;2022-10-28T00:24:18;15.45;;;7.25;;
9160;SDS011;4615;51.340;8.288;2022-10-28T00:26:44;14.15;;;6.68;;
9160;SDS011;4615;51.340;8.288;2022-10-28T00:29:13;12.35;;;6.15;;
9160;SDS011;4615;51.340;8.288;2022-10-28T00:31:40;16.25;;;7.10;;
9160;SDS011;4615;51.340;8.288;2022-10-28T00:34:08;16.90;;;6.45;;
9160;SDS011;4615;51.340;8.288;2022-10-28T00:36:35;14.88;;;6.70;;
9160;SDS011;4615;51.340;8.288;2022-10-28T00:39:02;15.30;;;7.73;;
9160;SDS011;4615;51.340;8.288;2022-10-28T00:41:36;16.20;;;7.28;;
9160;SDS011;4615;51.340;8.288;2022-10-28T00:46:46;15.77;;;6.65;;
9160;SDS011;4615;51.340;8.288;2022-10-28T00:49:17;15.88;;;6.78;;
9160;SDS011;4615;51.340;8.288;2022-10-28T00:51:45;14.40;;;6.07;;
9160;SDS011;4615;51.340;8.288;2022-10-28T00:54:13;15.18;;;6.13;;
9160;SDS011;4615;51.340;8.288;2022-10-28T00:56:41;12.73;;;5.35;;
9160;SDS011;4615;51.340;8.288;2022-10-28T00:59:10;13.95;;;6.75;;
9160;SDS011;4615;51.340;8.288;2022-10-28T01:01:38;9.55;;;5.30;;
9160;SDS011;4615;51.340;8.288;2022-10-28T01:04:06;11.93;;;6.07;;
9160;SDS011;4615;51.340;8.288;2022-10-28T01:06:33;14.23;;;5.93;;
9160;SDS011;4615;51.340;8.288;2022-10-28T01:08:59;12.85;;;5.70;;
9160;SDS011;4615;51.340;8.288;2022-10-28T01:11:30;11.30;;;5.95;;
9160;SDS011;4615;51.340;8.288;2022-10-28T01:14:04;14.00;;;6.18;;
9160;SDS011;4615;51.340;8.288;2022-10-28T01:16:35;13.23;;;5.40;;
9160;SDS011;4615;51.340;8.288;2022-10-28T01:19:11;10.87;;;5.40;;
9160;SDS011;4615;51.340;8.288;2022-10-28T01:21:52;12.88;;;5.00;;
9160;SDS011;4615;51.340;8.288;2022-10-28T01:24:28;12.07;;;5.13;;
9160;SDS011;4615;51.340;8.288;2022-10-28T01:27:04;14.00;;;5.93;;
9160;SDS011;4615;51.340;8.288;2022-10-28T01:29:39;12.85;;;5.57;;
9160;SDS011;4615;51.340;8.288;2022-10-28T01:32:11;11.90;;;5.45;;
9160;SDS011;4615;51.340;8.288;2022-10-28T01:34:41;9.82;;;5.75;;
9160;SDS011;4615;51.340;8.288;2022-10-28T01:37:14;13.07;;;6.60;;
9160;SDS011;4615;51.340;8.288;2022-10-28T01:39:42;12.88;;;6.43;;
9160;SDS011;4615;51.340;8.288;2022-10-28T01:42:13;14.80;;;6.18;;
9160;SDS011;4615;51.340;8.288;2022-10-28T01:44:44;12.95;;;6.35;;
9160;SDS011;4615;51.340;8.288;2022-10-28T01:47:15;14.32;;;5.82;;
9160;SDS011;4615;51.340;8.288;2022-10-28T01:49:43;14.20;;;6.13;;
9160;SDS011;4615;51.340;8.288;2022-10-28T01:52:13;12.15;;;5.55;;
9160;SDS011;4615;51.340;8.288;2022-10-28T01:54:40;15.13;;;5.68;;
9160;SDS011;4615;51.340;8.288;2022-10-28T01:57:07;14.23;;;5.63;;
9160;SDS011;4615;51.340;8.288;2022-10-28T01:59:34;15.50;;;6.80;;
9160;SDS011;4615;51.340;8.288;2022-10-28T02:02:01;12.15;;;6.68;;
9160;SDS011;4615;51.340;8.288;2022-10-28T02:04:29;12.57;;;6.50;;
9160;SDS011;4615;51.340;8.288;2022-10-28T02:06:56;14.68;;;6.30;;
9160;SDS011;4615;51.340;8.288;2022-10-28T02:09:30;12.48;;;6.20;;
9160;SDS011;4615;51.340;8.288;2022-10-28T02:12:10;14.73;;;6.20;;
9160;SDS011;4615;51.340;8.288;2022-10-28T02:14:44;15.13;;;5.85;;
9160;SDS011;4615;51.340;8.288;2022-10-28T02:17:16;13.43;;;4.83;;
9160;SDS011;4615;51.340;8.288;2022-10-28T02:19:47;10.38;;;4.18;;
9160;SDS011;4615;51.340;8.288;2022-10-28T02:22:17;10.40;;;4.00;;
9160;SDS011;4615;51.340;8.288;2022-10-28T02:24:47;10.85;;;4.05;;
9160;SDS011;4615;51.340;8.288;2022-10-28T02:27:17;11.05;;;4.07;;
9160;SDS011;4615;51.340;8.288;2022-10-28T02:29:47;10.77;;;4.05;;
9160;SDS011;4615;51.340;8.288;2022-10-28T02:32:16;10.95;;;4.45;;
9160;SDS011;4615;51.340;8.288;2022-10-28T02:34:45;16.15;;;6.95;;
9160;SDS011;4615;51.340;8.288;2022-10-28T02:37:14;12.80;;;4.40;;
9160;SDS011;4615;51.340;8.288;2022-10-28T02:39:44;10.55;;;3.90;;
9160;SDS011;4615;51.340;8.288;2022-10-28T02:42:11;10.90;;;4.00;;
9160;SDS011;4615;51.340;8.288;2022-10-28T02:44:41;9.60;;;3.80;;
9160;SDS011;4615;51.340;8.288;2022-10-28T02:47:10;12.47;;;4.10;;
9160;SDS011;4615;51.340;8.288;2022-10-28T02:49:38;11.88;;;3.97;;
9160;SDS011;4615;51.340;8.288;2022-10-28T02:52:06;11.30;;;3.70;;
9160;SDS011;4615;51.340;8.288;2022-10-28T02:54:35;11.10;;;3.90;;
9160;SDS011;4615;51.340;8.288;2022-10-28T02:57:04;11.90;;;3.47;;
9160;SDS011;4615;51.340;8.288;2022-10-28T02:59:33;8.82;;;3.85;;
9160;SDS011;4615;51.340;8.288;2022-10-28T03:01:59;9.13;;;3.60;;
9160;SDS011;4615;51.340;8.288;2022-10-28T03:04:25;10.38;;;3.83;;
9160;SDS011;4615;51.340;8.288;2022-10-28T03:06:52;11.10;;;3.78;;
9160;SDS011;4615;51.340;8.288;2022-10-28T03:09:18;11.38;;;3.78;;
9160;SDS011;4615;51.340;8.288;2022-10-28T03:11:46;8.63;;;3.60;;
9160;SDS011;4615;51.340;8.288;2022-10-28T03:14:12;12.82;;;3.80;;
9160;SDS011;4615;51.340;8.288;2022-10-28T03:16:39;13.27;;;4.05;;
9160;SDS011;4615;51.340;8.288;2022-10-28T03:19:05;12.20;;;4.20;;
9160;SDS011;4615;51.340;8.288;2022-10-28T03:21:31;9.45;;;3.80;;
9160;SDS011;4615;51.340;8.288;2022-10-28T03:23:58;9.80;;;3.50;;
9160;SDS011;4615;51.340;8.288;2022-10-28T03:26:24;10.98;;;3.67;;
9160;SDS011;4615;51.340;8.288;2022-10-28T03:28:52;9.10;;;3.53;;
9160;SDS011;4615;51.340;8.288;2022-10-28T03:31:18;10.85;;;3.53;;
9160;SDS011;4615;51.340;8.288;2022-10-28T03:33:45;10.35;;;4.13;;
9160;SDS011;4615;51.340;8.288;2022-10-28T03:36:11;8.73;;;3.40;;
9160;SDS011;4615;51.340;8.288;2022-10-28T03:38:37;11.85;;;3.75;;
9160;SDS011;4615;51.340;8.288;2022-10-28T03:41:04;8.25;;;3.42;;
9160;SDS011;4615;51.340;8.288;2022-10-28T03:43:30;9.02;;;3.58;;
9160;SDS011;4615;51.340;8.288;2022-10-28T03:45:58;10.10;;;3.75;;
9160;SDS011;4615;51.340;8.288;2022-10-28T03:48:24;9.40;;;3.83;;
9160;SDS011;4615;51.340;8.288;2022-10-28T03:50:51;10.45;;;3.90;;
9160;SDS011;4615;51.340;8.288;2022-10-28T03:53:17;11.27;;;3.85;;
9160;SDS011;4615;51.340;8.288;2022-10-28T03:55:49;10.07;;;3.63;;
9160;SDS011;4615;51.340;8.288;2022-10-28T03:58:16;11.88;;;4.25;;
9160;SDS011;4615;51.340;8.288;2022-10-28T04:00:42;10.90;;;3.65;;
9160;SDS011;4615;51.340;8.288;2022-10-28T04:03:10;7.68;;;3.67;;
9160;SDS011;4615;51.340;8.288;2022-10-28T04:05:36;10.35;;;3.80;;
9160;SDS011;4615;51.340;8.288;2022-10-28T04:08:03;8.30;;;3.70;;
9160;SDS011;4615;51.340;8.288;2022-10-28T04:10:29;10.85;;;3.97;;
9160;SDS011;4615;51.340;8.288;2022-10-28T04:12:58;8.35;;;3.63;;
9160;SDS011;4615;51.340;8.288;2022-10-28T04:15:24;9.27;;;3.97;;
9160;SDS011;4615;51.340;8.288;2022-10-28T04:17:51;10.53;;;3.90;;
9160;SDS011;4615;51.340;8.288;2022-10-28T04:20:18;9.93;;;3.70;;
9160;SDS011;4615;51.340;8.288;2022-10-28T04:22:45;7.90;;;3.50;;
9160;SDS011;4615;51.340;8.288;2022-10-28T04:25:11;8.90;;;4.28;;
9160;SDS011;4615;51.340;8.288;2022-10-28T04:27:38;10.85;;;4.03;;
9160;SDS011;4615;51.340;8.288;2022-10-28T04:30:05;10.30;;;3.95;;
9160;SDS011;4615;51.340;8.288;2022-10-28T04:32:31;14.68;;;4.15;;
9160;SDS011;4615;51.340;8.288;2022-10-28T04:34:58;9.23;;;3.85;;
9160;SDS011;4615;51.340;8.288;2022-10-28T04:37:25;12.07;;;3.90;;
9160;SDS011;4615;51.340;8.288;2022-10-28T04:39:52;11.03;;;4.10;;
9160;SDS011;4615;51.340;8.288;2022-10-28T04:42:18;9.13;;;3.72;;
9160;SDS011;4615;51.340;8.288;2022-10-28T04:44:45;12.80;;;4.13;;
9160;SDS011;4615;51.340;8.288;2022-10-28T04:47:11;9.02;;;4.00;;
9160;SDS011;4615;51.340;8.288;2022-10-28T04:49:37;9.60;;;3.70;;
9160;SDS011;4615;51.340;8.288;2022-10-28T04:52:04;8.98;;;3.97;;
9160;SDS011;4615;51.340;8.288;2022-10-28T04:54:32;11.38;;;4.03;;
9160;SDS011;4615;51.340;8.288;2022-10-28T04:56:58;12.63;;;3.93;;
9160;SDS011;4615;51.340;8.288;2022-10-28T04:59:24;13.80;;;3.90;;
9160;SDS011;4615;51.340;8.288;2022-10-28T05:01:51;11.50;;;4.25;;
9160;SDS011;4615;51.340;8.288;2022-10-28T05:04:17;13.37;;;4.07;;
9160;SDS011;4615;51.340;8.288;2022-10-28T05:06:43;11.15;;;4.20;;
9160;SDS011;4615;51.340;8.288;2022-10-28T05:09:10;14.07;;;4.43;;
9160;SDS011;4615;51.340;8.288;2022-10-28T05:11:38;10.48;;;4.10;;
9160;SDS011;4615;51.340;8.288;2022-10-28T05:14:04;12.05;;;4.40;;
9160;SDS011;4615;51.340;8.288;2022-10-28T05:16:30;10.95;;;3.92;;
9160;SDS011;4615;51.340;8.288;2022-10-28T05:18:57;8.52;;;3.90;;
9160;SDS011;4615;51.340;8.288;2022-10-28T05:21:23;11.47;;;4.40;;
9160;SDS011;4615;51.340;8.288;2022-10-28T05:23:50;11.18;;;3.85;;
9160;SDS011;4615;51.340;8.288;2022-10-28T05:26:16;10.27;;;4.18;;
9160;SDS011;4615;51.340;8.288;2022-10-28T05:28:44;11.23;;;4.18;;
9160;SDS011;4615;51.340;8.288;2022-10-28T05:31:13;10.82;;;4.18;;
9160;SDS011;4615;51.340;8.288;2022-10-28T05:33:39;9.05;;;4.35;;
9160;SDS011;4615;51.340;8.288;2022-10-28T05:36:06;9.82;;;4.15;;
9160;SDS011;4615;51.340;8.288;2022-10-28T05:38:32;11.77;;;4.10;;
9160;SDS011;4615;51.340;8.288;2022-10-28T05:40:59;10.63;;;4.30;;
9160;SDS011;4615;51.340;8.288;2022-10-28T05:43:25;11.68;;;4.10;;
9160;SDS011;4615;51.340;8.288;2022-10-28T05:45:53;11.50;;;4.20;;
9160;SDS011;4615;51.340;8.288;2022-10-28T05:48:19;13.55;;;4.18;;
9160;SDS011;4615;51.340;8.288;2022-10-28T05:50:46;13.95;;;4.10;;
9160;SDS011;4615;51.340;8.288;2022-10-28T05:53:12;9.30;;;4.10;;
9160;SDS011;4615;51.340;8.288;2022-10-28T05:55:39;11.27;;;4.22;;
9160;SDS011;4615;51.340;8.288;2022-10-28T05:58:05;10.23;;;3.95;;
9160;SDS011;4615;51.340;8.288;2022-10-28T06:00:32;9.43;;;4.00;;
9160;SDS011;4615;51.340;8.288;2022-10-28T06:03:03;12.80;;;4.35;;
9160;SDS011;4615;51.340;8.288;2022-10-28T06:05:33;13.52;;;4.10;;
9160;SDS011;4615;51.340;8.288;2022-10-28T06:07:59;8.33;;;4.10;;
9160;SDS011;4615;51.340;8.288;2022-10-28T06:10:26;11.45;;;4.45;;
9160;SDS011;4615;51.340;8.288;2022-10-28T06:12:53;10.05;;;4.32;;
9160;SDS011;4615;51.340;8.288;2022-10-28T06:15:20;8.50;;;4.25;;
9160;SDS011;4615;51.340;8.288;2022-10-28T06:17:46;12.10;;;4.35;;
9160;SDS011;4615;51.340;8.288;2022-10-28T06:20:14;9.40;;;4.30;;
9160;SDS011;4615;51.340;8.288;2022-10-28T06:22:45;13.53;;;4.30;;
9160;SDS011;4615;51.340;8.288;2022-10-28T06:25:12;8.45;;;4.00;;
9160;SDS011;4615;51.340;8.288;2022-10-28T06:27:38;9.25;;;4.18;;
9160;SDS011;4615;51.340;8.288;2022-10-28T06:30:05;11.93;;;4.03;;
9160;SDS011;4615;51.340;8.288;2022-10-28T06:32:32;12.23;;;4.70;;
9160;SDS011;4615;51.340;8.288;2022-10-28T06:34:58;10.63;;;4.55;;
9160;SDS011;4615;51.340;8.288;2022-10-28T06:37:26;12.93;;;4.70;;
9160;SDS011;4615;51.340;8.288;2022-10-28T06:39:52;12.65;;;4.93;;
9160;SDS011;4615;51.340;8.288;2022-10-28T06:42:19;14.60;;;4.20;;
9160;SDS011;4615;51.340;8.288;2022-10-28T06:44:45;12.27;;;4.82;;
9160;SDS011;4615;51.340;8.288;2022-10-28T06:47:12;9.87;;;4.33;;
9160;SDS011;4615;51.340;8.288;2022-10-28T06:49:38;10.52;;;3.80;;
9160;SDS011;4615;51.340;8.288;2022-10-28T06:52:04;10.30;;;4.20;;
9160;SDS011;4615;51.340;8.288;2022-10-28T06:54:32;12.57;;;4.82;;
9160;SDS011;4615;51.340;8.288;2022-10-28T06:56:58;11.23;;;4.23;;
9160;SDS011;4615;51.340;8.288;2022-10-28T06:59:25;8.25;;;4.22;;
9160;SDS011;4615;51.340;8.288;2022-10-28T07:01:51;10.27;;;4.38;;
9160;SDS011;4615;51.340;8.288;2022-10-28T07:04:18;9.57;;;4.00;;
9160;SDS011;4615;51.340;8.288;2022-10-28T07:06:44;10.38;;;4.38;;
9160;SDS011;4615;51.340;8.288;2022-10-28T07:09:12;9.75;;;4.18;;
9160;SDS011;4615;51.340;8.288;2022-10-28T07:11:40;10.43;;;4.53;;
9160;SDS011;4615;51.340;8.288;2022-10-28T07:14:07;11.10;;;4.60;;
9160;SDS011;4615;51.340;8.288;2022-10-28T07:16:34;12.43;;;4.20;;
9160;SDS011;4615;51.340;8.288;2022-10-28T07:19:00;10.80;;;4.15;;
9160;SDS011;4615;51.340;8.288;2022-10-28T07:21:27;11.65;;;4.13;;
9160;SDS011;4615;51.340;8.288;2022-10-28T07:23:54;9.98;;;4.15;;
9160;SDS011;4615;51.340;8.288;2022-10-28T07:26:21;13.32;;;4.63;;
9160;SDS011;4615;51.340;8.288;2022-10-28T07:28:48;9.32;;;4.40;;
9160;SDS011;4615;51.340;8.288;2022-10-28T07:31:15;13.80;;;4.50;;
9160;SDS011;4615;51.340;8.288;2022-10-28T07:33:41;14.23;;;4.70;;
9160;SDS011;4615;51.340;8.288;2022-10-28T07:36:08;9.68;;;3.85;;
9160;SDS011;4615;51.340;8.288;2022-10-28T07:38:35;11.80;;;3.88;;
9160;SDS011;4615;51.340;8.288;2022-10-28T07:41:04;15.68;;;4.40;;
9160;SDS011;4615;51.340;8.288;2022-10-28T07:43:33;13.15;;;4.55;;
9160;SDS011;4615;51.340;8.288;2022-10-28T07:46:01;10.23;;;4.55;;
9160;SDS011;4615;51.340;8.288;2022-10-28T07:48:28;11.20;;;4.30;;
9160;SDS011;4615;51.340;8.288;2022-10-28T07:50:54;11.77;;;4.80;;
9160;SDS011;4615;51.340;8.288;2022-10-28T07:53:20;13.45;;;4.20;;
9160;SDS011;4615;51.340;8.288;2022-10-28T07:55:53;12.40;;;4.03;;
9160;SDS011;4615;51.340;8.288;2022-10-28T07:58:19;13.23;;;4.82;;
9160;SDS011;4615;51.340;8.288;2022-10-28T08:00:45;11.60;;;4.13;;
9160;SDS011;4615;51.340;8.288;2022-10-28T08:03:14;9.85;;;4.20;;
9160;SDS011;4615;51.340;8.288;2022-10-28T08:05:40;8.95;;;3.90;;
9160;SDS011;4615;51.340;8.288;2022-10-28T08:08:06;12.63;;;4.32;;
9160;SDS011;4615;51.340;8.288;2022-10-28T08:10:33;11.23;;;4.38;;
9160;SDS011;4615;51.340;8.288;2022-10-28T08:13:00;10.70;;;4.20;;
9160;SDS011;4615;51.340;8.288;2022-10-28T08:15:26;10.07;;;4.20;;
9160;SDS011;4615;51.340;8.288;2022-10-28T08:17:54;12.80;;;4.53;;
9160;SDS011;4615;51.340;8.288;2022-10-28T08:20:22;10.40;;;4.23;;
9160;SDS011;4615;51.340;8.288;2022-10-28T08:22:48;12.07;;;4.18;;
9160;SDS011;4615;51.340;8.288;2022-10-28T08:25:15;13.15;;;4.40;;
9160;SDS011;4615;51.340;8.288;2022-10-28T08:27:41;12.45;;;4.25;;
9160;SDS011;4615;51.340;8.288;2022-10-28T08:30:08;14.37;;;4.50;;
9160;SDS011;4615;51.340;8.288;2022-10-28T08:32:34;9.43;;;4.00;;
9160;SDS011;4615;51.340;8.288;2022-10-28T08:35:01;11.35;;;4.15;;
9160;SDS011;4615;51.340;8.288;2022-10-28T08:37:29;10.88;;;3.92;;
9160;SDS011;4615;51.340;8.288;2022-10-28T08:39:55;11.52;;;4.10;;
9160;SDS011;4615;51.340;8.288;2022-10-28T08:42:25;13.43;;;4.07;;
9160;SDS011;4615;51.340;8.288;2022-10-28T08:45:02;9.43;;;3.85;;
9160;SDS011;4615;51.340;8.288;2022-10-28T08:47:36;11.90;;;3.97;;
9160;SDS011;4615;51.340;8.288;2022-10-28T08:50:04;11.43;;;4.05;;
9160;SDS011;4615;51.340;8.288;2022-10-28T08:52:37;13.70;;;4.50;;
9160;SDS011;4615;51.340;8.288;2022-10-28T08:55:06;13.00;;;4.18;;
9160;SDS011;4615;51.340;8.288;2022-10-28T08:57:37;12.60;;;4.28;;
9160;SDS011;4615;51.340;8.288;2022-10-28T09:00:07;9.88;;;3.85;;
9160;SDS011;4615;51.340;8.288;2022-10-28T09:02:39;12.25;;;4.00;;
9160;SDS011;4615;51.340;8.288;2022-10-28T09:05:14;10.52;;;3.85;;
9160;SDS011;4615;51.340;8.288;2022-10-28T09:07:43;14.65;;;4.03;;
9160;SDS011;4615;51.340;8.288;2022-10-28T09:10:11;11.70;;;3.85;;
9160;SDS011;4615;51.340;8.288;2022-10-28T09:12:40;11.15;;;4.07;;
9160;SDS011;4615;51.340;8.288;2022-10-28T09:15:17;13.15;;;4.28;;
9160;SDS011;4615;51.340;8.288;2022-10-28T09:17:48;9.43;;;4.00;;
9160;SDS011;4615;51.340;8.288;2022-10-28T09:20:17;15.15;;;4.55;;
9160;SDS011;4615;51.340;8.288;2022-10-28T09:22:47;11.48;;;3.72;;
9160;SDS011;4615;51.340;8.288;2022-10-28T09:25:20;10.77;;;4.10;;
9160;SDS011;4615;51.340;8.288;2022-10-28T09:27:50;9.93;;;4.18;;
9160;SDS011;4615;51.340;8.288;2022-10-28T09:30:25;11.07;;;4.07;;
9160;SDS011;4615;51.340;8.288;2022-10-28T09:32:57;10.05;;;4.10;;
9160;SDS011;4615;51.340;8.288;2022-10-28T09:35:27;12.80;;;3.92;;
9160;SDS011;4615;51.340;8.288;2022-10-28T09:37:58;13.60;;;4.30;;
9160;SDS011;4615;51.340;8.288;2022-10-28T09:40:26;13.68;;;4.10;;
9160;SDS011;4615;51.340;8.288;2022-10-28T09:42:56;12.30;;;4.10;;
9160;SDS011;4615;51.340;8.288;2022-10-28T09:45:24;12.17;;;3.90;;
9160;SDS011;4615;51.340;8.288;2022-10-28T09:47:54;9.90;;;4.07;;
9160;SDS011;4615;51.340;8.288;2022-10-28T09:50:22;15.45;;;4.10;;
9160;SDS011;4615;51.340;8.288;2022-10-28T09:52:51;11.73;;;4.07;;
9160;SDS011;4615;51.340;8.288;2022-10-28T09:55:21;11.23;;;4.13;;
9160;SDS011;4615;51.340;8.288;2022-10-28T09:57:47;13.20;;;4.10;;
9160;SDS011;4615;51.340;8.288;2022-10-28T10:00:14;9.73;;;3.77;;
9160;SDS011;4615;51.340;8.288;2022-10-28T10:02:41;11.02;;;4.00;;
9160;SDS011;4615;51.340;8.288;2022-10-28T10:05:10;13.68;;;4.18;;
9160;SDS011;4615;51.340;8.288;2022-10-28T10:07:37;13.63;;;4.40;;
9160;SDS011;4615;51.340;8.288;2022-10-28T10:10:05;13.32;;;3.80;;
9160;SDS011;4615;51.340;8.288;2022-10-28T10:12:34;12.63;;;4.13;;
9160;SDS011;4615;51.340;8.288;2022-10-28T10:15:00;12.60;;;3.97;;
9160;SDS011;4615;51.340;8.288;2022-10-28T10:17:31;14.00;;;4.20;;
9160;SDS011;4615;51.340;8.288;2022-10-28T10:20:01;12.73;;;4.23;;
9160;SDS011;4615;51.340;8.288;2022-10-28T10:22:29;9.85;;;3.85;;
9160;SDS011;4615;51.340;8.288;2022-10-28T10:24:56;9.73;;;4.03;;
9160;SDS011;4615;51.340;8.288;2022-10-28T10:27:22;9.80;;;3.90;;
9160;SDS011;4615;51.340;8.288;2022-10-28T10:29:51;12.30;;;3.78;;
9160;SDS011;4615;51.340;8.288;2022-10-28T10:32:20;10.85;;;4.22;;
9160;SDS011;4615;51.340;8.288;2022-10-28T10:34:49;11.07;;;4.07;;
9160;SDS011;4615;51.340;8.288;2022-10-28T10:37:17;12.90;;;4.10;;
9160;SDS011;4615;51.340;8.288;2022-10-28T10:39:45;12.88;;;4.03;;
9160;SDS011;4615;51.340;8.288;2022-10-28T10:42:23;11.88;;;4.00;;
9160;SDS011;4615;51.340;8.288;2022-10-28T10:44:57;12.75;;;4.13;;
9160;SDS011;4615;51.340;8.288;2022-10-28T10:47:24;13.48;;;4.20;;
9160;SDS011;4615;51.340;8.288;2022-10-28T10:49:51;10.82;;;3.80;;
9160;SDS011;4615;51.340;8.288;2022-10-28T10:52:20;12.10;;;3.88;;
9160;SDS011;4615;51.340;8.288;2022-10-28T10:54:55;12.00;;;3.95;;
9160;SDS011;4615;51.340;8.288;2022-10-28T10:57:22;12.03;;;4.03;;
9160;SDS011;4615;51.340;8.288;2022-10-28T10:59:50;9.50;;;3.90;;
9160;SDS011;4615;51.340;8.288;2022-10-28T11:02:21;15.87;;;4.17;;
9160;SDS011;4615;51.340;8.288;2022-10-28T11:04:48;12.43;;;4.22;;
9160;SDS011;4615;51.340;8.288;2022-10-28T11:07:15;14.25;;;4.10;;
9160;SDS011;4615;51.340;8.288;2022-10-28T11:09:43;10.48;;;3.83;;
9160;SDS011;4615;51.340;8.288;2022-10-28T11:12:13;12.48;;;4.13;;
9160;SDS011;4615;51.340;8.288;2022-10-28T11:14:39;13.30;;;4.43;;
9160;SDS011;4615;51.340;8.288;2022-10-28T11:17:22;10.75;;;3.90;;
9160;SDS011;4615;51.340;8.288;2022-10-28T11:19:49;10.93;;;3.80;;
9160;SDS011;4615;51.340;8.288;2022-10-28T11:22:19;10.40;;;4.18;;
9160;SDS011;4615;51.340;8.288;2022-10-28T11:24:51;12.70;;;3.92;;
9160;SDS011;4615;51.340;8.288;2022-10-28T11:27:22;11.35;;;4.00;;
9160;SDS011;4615;51.340;8.288;2022-10-28T11:29:51;9.82;;;4.22;;
9160;SDS011;4615;51.340;8.288;2022-10-28T11:32:22;10.75;;;3.95;;
9160;SDS011;4615;51.340;8.288;2022-10-28T11:35:06;12.73;;;4.15;;
9160;SDS011;4615;51.340;8.288;2022-10-28T11:37:38;15.35;;;4.28;;
9160;SDS011;4615;51.340;8.288;2022-10-28T11:40:11;8.43;;;3.67;;
9160;SDS011;4615;51.340;8.288;2022-10-28T11:42:42;9.73;;;4.03;;
9160;SDS011;4615;51.340;8.288;2022-10-28T11:45:11;13.65;;;3.95;;
9160;SDS011;4615;51.340;8.288;2022-10-28T11:47:44;14.57;;;4.18;;
9160;SDS011;4615;51.340;8.288;2022-10-28T11:55:40;11.55;;;4.05;;
9160;SDS011;4615;51.340;8.288;2022-10-28T11:58:12;13.45;;;4.07;;
9160;SDS011;4615;51.340;8.288;2022-10-28T12:00:42;17.25;;;4.30;;
9160;SDS011;4615;51.340;8.288;2022-10-28T12:05:54;13.05;;;3.95;;
9160;SDS011;4615;51.340;8.288;2022-10-28T12:08:29;15.00;;;4.10;;
9160;SDS011;4615;51.340;8.288;2022-10-28T12:11:02;11.63;;;4.10;;
9160;SDS011;4615;51.340;8.288;2022-10-28T12:13:35;12.38;;;4.13;;
9160;SDS011;4615;51.340;8.288;2022-10-28T12:16:05;12.30;;;4.32;;
9160;SDS011;4615;51.340;8.288;2022-10-28T12:18:34;14.85;;;4.25;;
9160;SDS011;4615;51.340;8.288;2022-10-28T12:21:06;12.10;;;4.13;;
9160;SDS011;4615;51.340;8.288;2022-10-28T12:23:37;13.40;;;4.10;;
9160;SDS011;4615;51.340;8.288;2022-10-28T12:26:05;13.35;;;4.10;;
9160;SDS011;4615;51.340;8.288;2022-10-28T12:28:36;12.52;;;3.92;;
9160;SDS011;4615;51.340;8.288;2022-10-28T12:31:02;10.32;;;3.92;;
9160;SDS011;4615;51.340;8.288;2022-10-28T12:33:33;15.73;;;4.50;;
9160;SDS011;4615;51.340;8.288;2022-10-28T12:36:14;11.93;;;4.10;;
9160;SDS011;4615;51.340;8.288;2022-10-28T12:38:43;12.50;;;4.30;;
9160;SDS011;4615;51.340;8.288;2022-10-28T12:41:11;13.38;;;4.20;;
9160;SDS011;4615;51.340;8.288;2022-10-28T12:43:40;16.60;;;4.53;;
9160;SDS011;4615;51.340;8.288;2022-10-28T12:46:08;15.50;;;4.10;;
9160;SDS011;4615;51.340;8.288;2022-10-28T12:48:40;15.32;;;4.43;;
9160;SDS011;4615;51.340;8.288;2022-10-28T12:51:10;12.95;;;4.38;;
9160;SDS011;4615;51.340;8.288;2022-10-28T12:53:43;14.15;;;4.40;;
9160;SDS011;4615;51.340;8.288;2022-10-28T12:56:12;12.97;;;4.27;;
9160;SDS011;4615;51.340;8.288;2022-10-28T12:58:43;13.83;;;4.13;;
9160;SDS011;4615;51.340;8.288;2022-10-28T13:01:12;11.90;;;4.10;;
9160;SDS011;4615;51.340;8.288;2022-10-28T13:03:39;13.68;;;4.47;;
9160;SDS011;4615;51.340;8.288;2022-10-28T13:06:10;12.00;;;4.30;;
9160;SDS011;4615;51.340;8.288;2022-10-28T13:08:45;11.27;;;4.15;;
9160;SDS011;4615;51.340;8.288;2022-10-28T13:11:38;12.27;;;4.35;;
9160;SDS011;4615;51.340;8.288;2022-10-28T13:14:08;15.45;;;3.80;;
9160;SDS011;4615;51.340;8.288;2022-10-28T13:16:42;17.15;;;4.97;;
9160;SDS011;4615;51.340;8.288;2022-10-28T13:19:25;12.45;;;4.30;;
9160;SDS011;4615;51.340;8.288;2022-10-28T13:24:38;12.38;;;4.38;;
9160;SDS011;4615;51.340;8.288;2022-10-28T13:27:07;11.13;;;3.97;;
9160;SDS011;4615;51.340;8.288;2022-10-28T13:29:35;13.65;;;4.05;;
9160;SDS011;4615;51.340;8.288;2022-10-28T13:32:02;13.90;;;4.65;;
9160;SDS011;4615;51.340;8.288;2022-10-28T13:34:30;13.93;;;4.57;;
9160;SDS011;4615;51.340;8.288;2022-10-28T13:36:57;13.82;;;4.13;;
9160;SDS011;4615;51.340;8.288;2022-10-28T13:39:37;16.60;;;4.20;;
9160;SDS011;4615;51.340;8.288;2022-10-28T13:44:51;14.18;;;4.40;;
9160;SDS011;4615;51.340;8.288;2022-10-28T13:47:22;9.85;;;4.10;;
9160;SDS011;4615;51.340;8.288;2022-10-28T13:56:00;12.25;;;4.18;;
9160;SDS011;4615;51.340;8.288;2022-10-28T13:58:35;12.60;;;4.10;;
9160;SDS011;4615;51.340;8.288;2022-10-28T14:03:46;15.20;;;4.40;;
9160;SDS011;4615;51.340;8.288;2022-10-28T14:06:18;13.60;;;4.50;;
9160;SDS011;4615;51.340;8.288;2022-10-28T14:08:54;14.82;;;4.20;;
9160;SDS011;4615;51.340;8.288;2022-10-28T14:11:21;13.30;;;4.03;;
9160;SDS011;4615;51.340;8.288;2022-10-28T14:13:49;14.30;;;4.18;;
9160;SDS011;4615;51.340;8.288;2022-10-28T14:16:19;16.23;;;4.47;;
9160;SDS011;4615;51.340;8.288;2022-10-28T14:18:52;15.53;;;4.70;;
9160;SDS011;4615;51.340;8.288;2022-10-28T14:21:18;13.25;;;4.13;;
9160;SDS011;4615;51.340;8.288;2022-10-28T14:23:49;13.40;;;3.90;;
9160;SDS011;4615;51.340;8.288;2022-10-28T14:26:15;14.10;;;4.27;;
9160;SDS011;4615;51.340;8.288;2022-10-28T14:28:48;15.10;;;3.95;;
9160;SDS011;4615;51.340;8.288;2022-10-28T14:31:17;18.38;;;4.32;;
9160;SDS011;4615;51.340;8.288;2022-10-28T14:33:48;14.17;;;4.20;;
9160;SDS011;4615;51.340;8.288;2022-10-28T14:36:33;11.70;;;4.07;;
9160;SDS011;4615;51.340;8.288;2022-10-28T14:39:09;14.00;;;4.68;;
9160;SDS011;4615;51.340;8.288;2022-10-28T14:41:49;15.15;;;4.78;;
9160;SDS011;4615;51.340;8.288;2022-10-28T14:44:22;13.18;;;4.15;;
9160;SDS011;4615;51.340;8.288;2022-10-28T14:46:55;16.30;;;4.63;;
9160;SDS011;4615;51.340;8.288;2022-10-28T14:49:27;13.52;;;4.40;;
9160;SDS011;4615;51.340;8.288;2022-10-28T14:51:57;13.82;;;4.18;;
9160;SDS011;4615;51.340;8.288;2022-10-28T14:54:31;17.35;;;4.75;;
9160;SDS011;4615;51.340;8.288;2022-10-28T14:57:01;14.18;;;4.53;;
9160;SDS011;4615;51.340;8.288;2022-10-28T14:59:28;14.15;;;4.28;;
9160;SDS011;4615;51.340;8.288;2022-10-28T15:01:58;11.00;;;4.05;;
9160;SDS011;4615;51.340;8.288;2022-10-28T15:04:25;14.70;;;4.57;;
9160;SDS011;4615;51.340;8.288;2022-10-28T15:06:52;14.30;;;4.15;;
9160;SDS011;4615;51.340;8.288;2022-10-28T15:09:20;16.08;;;4.15;;
9160;SDS011;4615;51.340;8.288;2022-10-28T15:11:48;12.27;;;4.07;;
9160;SDS011;4615;51.340;8.288;2022-10-28T15:14:22;15.50;;;4.30;;
9160;SDS011;4615;51.340;8.288;2022-10-28T15:16:49;14.48;;;4.40;;
9160;SDS011;4615;51.340;8.288;2022-10-28T15:19:18;11.88;;;4.30;;
9160;SDS011;4615;51.340;8.288;2022-10-28T15:21:58;15.23;;;4.80;;
9160;SDS011;4615;51.340;8.288;2022-10-28T15:24:26;15.50;;;4.20;;
9160;SDS011;4615;51.340;8.288;2022-10-28T15:26:52;15.15;;;4.85;;
9160;SDS011;4615;51.340;8.288;2022-10-28T15:29:20;13.80;;;4.68;;
9160;SDS011;4615;51.340;8.288;2022-10-28T15:32:03;14.65;;;4.57;;
9160;SDS011;4615;51.340;8.288;2022-10-28T15:34:29;12.50;;;4.03;;
9160;SDS011;4615;51.340;8.288;2022-10-28T15:36:56;12.13;;;3.92;;
9160;SDS011;4615;51.340;8.288;2022-10-28T15:39:22;12.52;;;4.18;;